sensor_id;sensor_type;location;lat;lon;timestamp;P1;durP1;ratioP1;P2;durP2;ratioP2
44572;SDS011;31762;45.420;10.072;2024-01-30T00:02:39;23.13;;;20.83;;
44572;SDS011;31762;45.420;10.072;2024-01-30T00:07:41;21.30;;;19.17;;
44572;SDS011;31762;45.420;10.072;2024-01-30T00:12:43;21.67;;;19.48;;
44572;SDS011;31762;45.420;10.072;2024-01-30T00:17:46;22.13;;;20.02;;
44572;SDS011;31762;45.420;10.072;2024-01-30T00:22:48;24.23;;;21.88;;
44572;SDS011;31762;45.420;10.072;2024-01-30T00:27:50;23.10;;;20.75;;
44572;SDS011;31762;45.420;10.072;2024-01-30T00:32:53;22.90;;;20.55;;
44572;SDS011;31762;45.420;10.072;2024-01-30T00:37:56;22.42;;;20.00;;
44572;SDS011;31762;45.420;10.072;2024-01-30T00:42:58;24.85;;;22.58;;
44572;SDS011;31762;45.420;10.072;2024-01-30T00:48:00;25.52;;;22.75;;
44572;SDS011;31762;45.420;10.072;2024-01-30T00:53:03;23.00;;;20.58;;
44572;SDS011;31762;45.420;10.072;2024-01-30T00:58:05;24.05;;;21.85;;
44572;SDS011;31762;45.420;10.072;2024-01-30T01:03:07;24.05;;;21.63;;
44572;SDS011;31762;45.420;10.072;2024-01-30T01:08:10;24.67;;;22.27;;
44572;SDS011;31762;45.420;10.072;2024-01-30T01:13:12;23.23;;;20.65;;
44572;SDS011;31762;45.420;10.072;2024-01-30T01:18:14;23.33;;;21.00;;
44572;SDS011;31762;45.420;10.072;2024-01-30T01:23:16;23.85;;;21.45;;
44572;SDS011;31762;45.420;10.072;2024-01-30T01:28:18;23.50;;;21.15;;
44572;SDS011;31762;45.420;10.072;2024-01-30T01:33:21;23.45;;;21.15;;
44572;SDS011;31762;45.420;10.072;2024-01-30T01:38:23;22.42;;;20.30;;
44572;SDS011;31762;45.420;10.072;2024-01-30T01:43:25;24.05;;;21.75;;
44572;SDS011;31762;45.420;10.072;2024-01-30T01:48:27;22.88;;;20.58;;
44572;SDS011;31762;45.420;10.072;2024-01-30T01:53:30;22.05;;;19.95;;
44572;SDS011;31762;45.420;10.072;2024-01-30T01:58:32;22.20;;;20.15;;
44572;SDS011;31762;45.420;10.072;2024-01-30T02:03:34;19.63;;;17.70;;
44572;SDS011;31762;45.420;10.072;2024-01-30T02:08:37;21.02;;;18.92;;
44572;SDS011;31762;45.420;10.072;2024-01-30T02:13:40;21.35;;;19.33;;
44572;SDS011;31762;45.420;10.072;2024-01-30T02:18:43;21.30;;;19.25;;
44572;SDS011;31762;45.420;10.072;2024-01-30T02:23:46;20.58;;;18.55;;
44572;SDS011;31762;45.420;10.072;2024-01-30T02:28:48;20.67;;;18.63;;
44572;SDS011;31762;45.420;10.072;2024-01-30T02:33:51;21.52;;;19.52;;
44572;SDS011;31762;45.420;10.072;2024-01-30T02:38:53;19.90;;;18.00;;
44572;SDS011;31762;45.420;10.072;2024-01-30T02:43:55;21.30;;;19.20;;
44572;SDS011;31762;45.420;10.072;2024-01-30T02:48:58;21.63;;;19.63;;
44572;SDS011;31762;45.420;10.072;2024-01-30T02:54:00;19.45;;;17.65;;
44572;SDS011;31762;45.420;10.072;2024-01-30T02:59:02;20.20;;;18.40;;
44572;SDS011;31762;45.420;10.072;2024-01-30T03:04:04;20.75;;;18.85;;
44572;SDS011;31762;45.420;10.072;2024-01-30T03:09:06;21.33;;;19.23;;
44572;SDS011;31762;45.420;10.072;2024-01-30T03:14:09;21.23;;;19.23;;
44572;SDS011;31762;45.420;10.072;2024-01-30T03:19:11;20.42;;;18.50;;
44572;SDS011;31762;45.420;10.072;2024-01-30T03:24:13;20.90;;;18.95;;
44572;SDS011;31762;45.420;10.072;2024-01-30T03:29:15;22.02;;;19.92;;
44572;SDS011;31762;45.420;10.072;2024-01-30T03:34:17;20.35;;;18.35;;
44572;SDS011;31762;45.420;10.072;2024-01-30T03:39:20;20.50;;;18.67;;
44572;SDS011;31762;45.420;10.072;2024-01-30T03:44:22;21.17;;;19.25;;
44572;SDS011;31762;45.420;10.072;2024-01-30T03:49:24;21.20;;;19.30;;
44572;SDS011;31762;45.420;10.072;2024-01-30T03:54:27;19.70;;;17.90;;
44572;SDS011;31762;45.420;10.072;2024-01-30T03:59:29;19.55;;;17.75;;
44572;SDS011;31762;45.420;10.072;2024-01-30T04:04:31;19.50;;;17.60;;
44572;SDS011;31762;45.420;10.072;2024-01-30T04:09:33;19.35;;;17.60;;
44572;SDS011;31762;45.420;10.072;2024-01-30T04:14:37;19.92;;;17.95;;
44572;SDS011;31762;45.420;10.072;2024-01-30T04:19:40;19.58;;;17.83;;
44572;SDS011;31762;45.420;10.072;2024-01-30T04:24:42;20.00;;;18.10;;
44572;SDS011;31762;45.420;10.072;2024-01-30T04:29:44;20.80;;;18.73;;
44572;SDS011;31762;45.420;10.072;2024-01-30T04:34:47;20.65;;;18.70;;
44572;SDS011;31762;45.420;10.072;2024-01-30T04:39:49;20.50;;;18.48;;
44572;SDS011;31762;45.420;10.072;2024-01-30T04:44:51;20.58;;;18.67;;
44572;SDS011;31762;45.420;10.072;2024-01-30T04:49:53;20.65;;;18.60;;
44572;SDS011;31762;45.420;10.072;2024-01-30T04:54:56;20.30;;;18.30;;
44572;SDS011;31762;45.420;10.072;2024-01-30T04:59:58;20.25;;;18.23;;
44572;SDS011;31762;45.420;10.072;2024-01-30T05:05:00;20.88;;;18.77;;
44572;SDS011;31762;45.420;10.072;2024-01-30T05:10:03;19.38;;;17.50;;
44572;SDS011;31762;45.420;10.072;2024-01-30T05:20:09;20.10;;;18.20;;
44572;SDS011;31762;45.420;10.072;2024-01-30T05:25:13;18.35;;;16.45;;
44572;SDS011;31762;45.420;10.072;2024-01-30T05:30:15;18.58;;;16.80;;
44572;SDS011;31762;45.420;10.072;2024-01-30T05:35:17;18.75;;;16.95;;
44572;SDS011;31762;45.420;10.072;2024-01-30T05:40:19;17.88;;;16.25;;
44572;SDS011;31762;45.420;10.072;2024-01-30T05:45:22;17.95;;;16.35;;
44572;SDS011;31762;45.420;10.072;2024-01-30T05:50:24;18.08;;;16.17;;
44572;SDS011;31762;45.420;10.072;2024-01-30T05:55:26;18.80;;;17.17;;
44572;SDS011;31762;45.420;10.072;2024-01-30T06:00:29;17.02;;;15.43;;
44572;SDS011;31762;45.420;10.072;2024-01-30T06:05:31;18.45;;;16.63;;
44572;SDS011;31762;45.420;10.072;2024-01-30T06:10:33;19.13;;;17.25;;
44572;SDS011;31762;45.420;10.072;2024-01-30T06:15:36;17.50;;;15.77;;
44572;SDS011;31762;45.420;10.072;2024-01-30T06:20:38;17.92;;;16.10;;
44572;SDS011;31762;45.420;10.072;2024-01-30T06:25:40;17.73;;;15.98;;
44572;SDS011;31762;45.420;10.072;2024-01-30T06:30:42;17.35;;;15.65;;
44572;SDS011;31762;45.420;10.072;2024-01-30T06:35:45;18.42;;;16.63;;
44572;SDS011;31762;45.420;10.072;2024-01-30T06:40:47;16.63;;;14.82;;
44572;SDS011;31762;45.420;10.072;2024-01-30T06:45:49;18.70;;;16.90;;
44572;SDS011;31762;45.420;10.072;2024-01-30T06:50:55;17.33;;;15.73;;
44572;SDS011;31762;45.420;10.072;2024-01-30T06:55:57;16.63;;;15.13;;
44572;SDS011;31762;45.420;10.072;2024-01-30T07:00:59;17.25;;;15.65;;
44572;SDS011;31762;45.420;10.072;2024-01-30T07:06:01;18.30;;;16.50;;
44572;SDS011;31762;45.420;10.072;2024-01-30T07:11:07;17.92;;;16.30;;
44572;SDS011;31762;45.420;10.072;2024-01-30T07:16:09;16.58;;;14.98;;
44572;SDS011;31762;45.420;10.072;2024-01-30T07:21:11;17.98;;;16.27;;
44572;SDS011;31762;45.420;10.072;2024-01-30T07:26:13;17.10;;;15.50;;
44572;SDS011;31762;45.420;10.072;2024-01-30T07:31:16;17.63;;;16.02;;
44572;SDS011;31762;45.420;10.072;2024-01-30T07:36:18;16.08;;;14.63;;
44572;SDS011;31762;45.420;10.072;2024-01-30T07:41:20;18.80;;;16.83;;
44572;SDS011;31762;45.420;10.072;2024-01-30T07:46:22;19.33;;;17.33;;
44572;SDS011;31762;45.420;10.072;2024-01-30T07:51:25;18.63;;;16.90;;
44572;SDS011;31762;45.420;10.072;2024-01-30T07:56:27;18.00;;;16.30;;
44572;SDS011;31762;45.420;10.072;2024-01-30T08:01:29;18.48;;;16.77;;
44572;SDS011;31762;45.420;10.072;2024-01-30T08:06:31;19.13;;;17.17;;
44572;SDS011;31762;45.420;10.072;2024-01-30T08:11:33;18.58;;;16.65;;
44572;SDS011;31762;45.420;10.072;2024-01-30T08:16:36;19.10;;;16.95;;
44572;SDS011;31762;45.420;10.072;2024-01-30T08:21:38;20.13;;;16.35;;
44572;SDS011;31762;45.420;10.072;2024-01-30T08:26:40;17.00;;;15.38;;
44572;SDS011;31762;45.420;10.072;2024-01-30T08:31:43;18.17;;;16.20;;
44572;SDS011;31762;45.420;10.072;2024-01-30T08:36:45;18.40;;;16.45;;
44572;SDS011;31762;45.420;10.072;2024-01-30T08:41:47;18.63;;;16.77;;
44572;SDS011;31762;45.420;10.072;2024-01-30T08:46:50;17.30;;;15.80;;
44572;SDS011;31762;45.420;10.072;2024-01-30T08:51:52;17.83;;;16.23;;
44572;SDS011;31762;45.420;10.072;2024-01-30T08:56:54;18.38;;;16.58;;
44572;SDS011;31762;45.420;10.072;2024-01-30T09:01:56;17.77;;;16.02;;
44572;SDS011;31762;45.420;10.072;2024-01-30T09:07:12;18.00;;;16.17;;
44572;SDS011;31762;45.420;10.072;2024-01-30T09:12:14;17.38;;;15.57;;
44572;SDS011;31762;45.420;10.072;2024-01-30T09:17:17;18.92;;;17.00;;
44572;SDS011;31762;45.420;10.072;2024-01-30T09:22:19;18.60;;;16.80;;
44572;SDS011;31762;45.420;10.072;2024-01-30T09:27:21;19.05;;;17.23;;
44572;SDS011;31762;45.420;10.072;2024-01-30T09:32:23;19.88;;;17.48;;
44572;SDS011;31762;45.420;10.072;2024-01-30T09:37:25;19.42;;;17.45;;
44572;SDS011;31762;45.420;10.072;2024-01-30T09:42:33;21.33;;;18.90;;
44572;SDS011;31762;45.420;10.072;2024-01-30T09:47:44;23.15;;;20.95;;
44572;SDS011;31762;45.420;10.072;2024-01-30T09:52:47;22.70;;;20.48;;
44572;SDS011;31762;45.420;10.072;2024-01-30T09:57:49;25.77;;;23.15;;
44572;SDS011;31762;45.420;10.072;2024-01-30T10:02:51;25.50;;;22.85;;
44572;SDS011;31762;45.420;10.072;2024-01-30T10:07:54;28.60;;;24.80;;
44572;SDS011;31762;45.420;10.072;2024-01-30T10:12:57;27.45;;;23.65;;
44572;SDS011;31762;45.420;10.072;2024-01-30T10:18:02;28.25;;;25.20;;
44572;SDS011;31762;45.420;10.072;2024-01-30T10:23:04;29.67;;;26.58;;
44572;SDS011;31762;45.420;10.072;2024-01-30T10:28:06;29.10;;;24.52;;
44572;SDS011;31762;45.420;10.072;2024-01-30T10:33:09;26.85;;;23.92;;
44572;SDS011;31762;45.420;10.072;2024-01-30T10:38:11;27.25;;;24.48;;
44572;SDS011;31762;45.420;10.072;2024-01-30T10:43:16;28.30;;;25.50;;
44572;SDS011;31762;45.420;10.072;2024-01-30T10:48:20;27.00;;;22.02;;
44572;SDS011;31762;45.420;10.072;2024-01-30T10:53:28;26.85;;;24.05;;
44572;SDS011;31762;45.420;10.072;2024-01-30T11:03:34;25.30;;;22.65;;
44572;SDS011;31762;45.420;10.072;2024-01-30T11:08:37;26.92;;;24.02;;
44572;SDS011;31762;45.420;10.072;2024-01-30T11:13:39;25.35;;;22.73;;
44572;SDS011;31762;45.420;10.072;2024-01-30T11:18:42;28.42;;;25.42;;
44572;SDS011;31762;45.420;10.072;2024-01-30T11:23:44;29.17;;;25.67;;
44572;SDS011;31762;45.420;10.072;2024-01-30T11:28:52;27.73;;;24.77;;
44572;SDS011;31762;45.420;10.072;2024-01-30T11:33:55;27.75;;;24.92;;
44572;SDS011;31762;45.420;10.072;2024-01-30T11:38:58;27.77;;;24.83;;
44572;SDS011;31762;45.420;10.072;2024-01-30T11:44:00;26.52;;;23.83;;
44572;SDS011;31762;45.420;10.072;2024-01-30T11:49:05;27.50;;;24.70;;
44572;SDS011;31762;45.420;10.072;2024-01-30T11:54:07;27.48;;;24.55;;
44572;SDS011;31762;45.420;10.072;2024-01-30T11:59:10;29.40;;;25.92;;
44572;SDS011;31762;45.420;10.072;2024-01-30T12:04:12;29.98;;;26.60;;
44572;SDS011;31762;45.420;10.072;2024-01-30T12:09:14;28.50;;;25.58;;
44572;SDS011;31762;45.420;10.072;2024-01-30T12:14:16;29.98;;;26.38;;
44572;SDS011;31762;45.420;10.072;2024-01-30T12:19:23;28.83;;;25.73;;
44572;SDS011;31762;45.420;10.072;2024-01-30T12:24:26;28.77;;;25.77;;
44572;SDS011;31762;45.420;10.072;2024-01-30T12:29:31;29.73;;;26.10;;
44572;SDS011;31762;45.420;10.072;2024-01-30T12:34:41;28.20;;;25.20;;
44572;SDS011;31762;45.420;10.072;2024-01-30T12:39:57;27.65;;;24.77;;
44572;SDS011;31762;45.420;10.072;2024-01-30T12:45:00;27.88;;;25.00;;
44572;SDS011;31762;45.420;10.072;2024-01-30T12:50:02;29.23;;;26.23;;
44572;SDS011;31762;45.420;10.072;2024-01-30T12:55:04;29.85;;;26.75;;
44572;SDS011;31762;45.420;10.072;2024-01-30T13:00:07;31.40;;;27.85;;
44572;SDS011;31762;45.420;10.072;2024-01-30T13:05:09;31.45;;;27.38;;
44572;SDS011;31762;45.420;10.072;2024-01-30T13:10:12;33.33;;;27.83;;
44572;SDS011;31762;45.420;10.072;2024-01-30T13:15:14;30.10;;;26.85;;
44572;SDS011;31762;45.420;10.072;2024-01-30T13:20:16;31.30;;;28.00;;
44572;SDS011;31762;45.420;10.072;2024-01-30T13:25:19;33.67;;;26.45;;
44572;SDS011;31762;45.420;10.072;2024-01-30T13:30:21;30.90;;;27.55;;
44572;SDS011;31762;45.420;10.072;2024-01-30T13:35:23;35.28;;;30.17;;
44572;SDS011;31762;45.420;10.072;2024-01-30T13:40:25;31.73;;;27.77;;
44572;SDS011;31762;45.420;10.072;2024-01-30T13:45:28;31.90;;;28.42;;
44572;SDS011;31762;45.420;10.072;2024-01-30T13:50:30;31.33;;;27.58;;
44572;SDS011;31762;45.420;10.072;2024-01-30T13:55:32;30.63;;;27.58;;
44572;SDS011;31762;45.420;10.072;2024-01-30T14:00:35;31.98;;;28.20;;
44572;SDS011;31762;45.420;10.072;2024-01-30T14:05:37;31.13;;;27.58;;
44572;SDS011;31762;45.420;10.072;2024-01-30T14:10:39;33.28;;;27.67;;
44572;SDS011;31762;45.420;10.072;2024-01-30T14:15:42;33.80;;;29.30;;
44572;SDS011;31762;45.420;10.072;2024-01-30T14:20:44;32.63;;;29.23;;
44572;SDS011;31762;45.420;10.072;2024-01-30T14:25:47;36.42;;;30.48;;
44572;SDS011;31762;45.420;10.072;2024-01-30T14:30:49;35.38;;;31.45;;
44572;SDS011;31762;45.420;10.072;2024-01-30T14:35:51;35.50;;;31.95;;
44572;SDS011;31762;45.420;10.072;2024-01-30T14:40:53;36.42;;;32.65;;
44572;SDS011;31762;45.420;10.072;2024-01-30T14:45:55;36.05;;;32.25;;
44572;SDS011;31762;45.420;10.072;2024-01-30T14:50:59;38.53;;;33.97;;
44572;SDS011;31762;45.420;10.072;2024-01-30T14:56:01;38.63;;;32.88;;
44572;SDS011;31762;45.420;10.072;2024-01-30T15:01:04;37.63;;;31.40;;
44572;SDS011;31762;45.420;10.072;2024-01-30T15:06:06;39.92;;;32.30;;
44572;SDS011;31762;45.420;10.072;2024-01-30T15:11:08;41.50;;;35.55;;
44572;SDS011;31762;45.420;10.072;2024-01-30T15:16:11;36.45;;;32.42;;
44572;SDS011;31762;45.420;10.072;2024-01-30T15:21:14;37.50;;;33.38;;
44572;SDS011;31762;45.420;10.072;2024-01-30T15:26:16;40.85;;;31.80;;
44572;SDS011;31762;45.420;10.072;2024-01-30T15:31:18;40.70;;;35.13;;
44572;SDS011;31762;45.420;10.072;2024-01-30T15:36:20;41.30;;;34.30;;
44572;SDS011;31762;45.420;10.072;2024-01-30T15:41:23;38.30;;;33.60;;
44572;SDS011;31762;45.420;10.072;2024-01-30T15:46:25;38.85;;;34.50;;
44572;SDS011;31762;45.420;10.072;2024-01-30T15:51:27;40.03;;;34.38;;
44572;SDS011;31762;45.420;10.072;2024-01-30T15:56:30;38.50;;;34.30;;
44572;SDS011;31762;45.420;10.072;2024-01-30T16:01:32;43.03;;;35.78;;
44572;SDS011;31762;45.420;10.072;2024-01-30T16:06:35;44.78;;;34.63;;
44572;SDS011;31762;45.420;10.072;2024-01-30T16:11:37;41.45;;;35.85;;
44572;SDS011;31762;45.420;10.072;2024-01-30T16:16:40;40.97;;;35.65;;
44572;SDS011;31762;45.420;10.072;2024-01-30T16:21:42;42.42;;;34.95;;
44572;SDS011;31762;45.420;10.072;2024-01-30T16:26:44;42.15;;;36.97;;
44572;SDS011;31762;45.420;10.072;2024-01-30T16:31:51;40.47;;;35.28;;
44572;SDS011;31762;45.420;10.072;2024-01-30T16:36:55;43.17;;;38.30;;
44572;SDS011;31762;45.420;10.072;2024-01-30T16:41:59;41.30;;;36.45;;
44572;SDS011;31762;45.420;10.072;2024-01-30T16:47:02;43.65;;;35.67;;
44572;SDS011;31762;45.420;10.072;2024-01-30T16:57:11;43.17;;;36.15;;
44572;SDS011;31762;45.420;10.072;2024-01-30T17:02:13;40.90;;;36.53;;
44572;SDS011;31762;45.420;10.072;2024-01-30T17:12:22;44.92;;;36.67;;
44572;SDS011;31762;45.420;10.072;2024-01-30T17:17:24;43.72;;;36.70;;
44572;SDS011;31762;45.420;10.072;2024-01-30T17:22:27;46.05;;;38.47;;
44572;SDS011;31762;45.420;10.072;2024-01-30T17:32:34;42.72;;;36.83;;
44572;SDS011;31762;45.420;10.072;2024-01-30T17:37:44;43.28;;;37.95;;
44572;SDS011;31762;45.420;10.072;2024-01-30T17:42:46;47.80;;;40.47;;
44572;SDS011;31762;45.420;10.072;2024-01-30T17:47:50;45.53;;;39.22;;
44572;SDS011;31762;45.420;10.072;2024-01-30T17:52:58;45.63;;;38.92;;
44572;SDS011;31762;45.420;10.072;2024-01-30T17:58:03;45.95;;;39.30;;
44572;SDS011;31762;45.420;10.072;2024-01-30T18:08:12;47.92;;;39.70;;
44572;SDS011;31762;45.420;10.072;2024-01-30T18:13:17;45.85;;;40.75;;
44572;SDS011;31762;45.420;10.072;2024-01-30T18:18:19;47.22;;;40.15;;
44572;SDS011;31762;45.420;10.072;2024-01-30T18:23:32;48.33;;;39.42;;
44572;SDS011;31762;45.420;10.072;2024-01-30T18:33:41;48.70;;;40.10;;
44572;SDS011;31762;45.420;10.072;2024-01-30T18:38:49;50.22;;;42.60;;
44572;SDS011;31762;45.420;10.072;2024-01-30T18:43:55;48.17;;;39.92;;
44572;SDS011;31762;45.420;10.072;2024-01-30T18:49:03;48.47;;;41.40;;
44572;SDS011;31762;45.420;10.072;2024-01-30T18:54:08;45.70;;;39.33;;
44572;SDS011;31762;45.420;10.072;2024-01-30T18:59:13;55.92;;;42.45;;
44572;SDS011;31762;45.420;10.072;2024-01-30T19:04:16;46.47;;;39.40;;
44572;SDS011;31762;45.420;10.072;2024-01-30T19:14:22;50.80;;;41.17;;
44572;SDS011;31762;45.420;10.072;2024-01-30T19:19:27;48.92;;;41.45;;
44572;SDS011;31762;45.420;10.072;2024-01-30T19:24:29;55.25;;;45.10;;
44572;SDS011;31762;45.420;10.072;2024-01-30T19:29:31;64.75;;;50.50;;
44572;SDS011;31762;45.420;10.072;2024-01-30T19:34:36;63.47;;;52.20;;
44572;SDS011;31762;45.420;10.072;2024-01-30T19:39:38;60.95;;;49.65;;
44572;SDS011;31762;45.420;10.072;2024-01-30T19:44:41;58.60;;;49.72;;
44572;SDS011;31762;45.420;10.072;2024-01-30T19:49:43;59.42;;;46.88;;
44572;SDS011;31762;45.420;10.072;2024-01-30T19:54:46;50.30;;;43.92;;
44572;SDS011;31762;45.420;10.072;2024-01-30T19:59:49;52.08;;;45.45;;
44572;SDS011;31762;45.420;10.072;2024-01-30T20:04:52;50.50;;;42.97;;
44572;SDS011;31762;45.420;10.072;2024-01-30T20:09:55;53.70;;;43.28;;
44572;SDS011;31762;45.420;10.072;2024-01-30T20:14:58;48.50;;;43.20;;
44572;SDS011;31762;45.420;10.072;2024-01-30T20:20:02;49.30;;;43.90;;
44572;SDS011;31762;45.420;10.072;2024-01-30T20:25:05;48.60;;;43.15;;
44572;SDS011;31762;45.420;10.072;2024-01-30T20:30:18;52.80;;;42.53;;
44572;SDS011;31762;45.420;10.072;2024-01-30T20:35:22;50.67;;;43.85;;
44572;SDS011;31762;45.420;10.072;2024-01-30T20:40:25;51.95;;;44.60;;
44572;SDS011;31762;45.420;10.072;2024-01-30T20:45:28;47.17;;;41.97;;
44572;SDS011;31762;45.420;10.072;2024-01-30T20:50:32;53.45;;;46.90;;
44572;SDS011;31762;45.420;10.072;2024-01-30T20:55:36;48.53;;;42.60;;
44572;SDS011;31762;45.420;10.072;2024-01-30T21:00:40;52.97;;;47.37;;
44572;SDS011;31762;45.420;10.072;2024-01-30T21:05:42;47.88;;;42.28;;
44572;SDS011;31762;45.420;10.072;2024-01-30T21:10:45;53.53;;;43.78;;
44572;SDS011;31762;45.420;10.072;2024-01-30T21:15:48;51.03;;;45.47;;
44572;SDS011;31762;45.420;10.072;2024-01-30T21:20:50;50.60;;;45.13;;
44572;SDS011;31762;45.420;10.072;2024-01-30T21:25:53;52.35;;;45.53;;
44572;SDS011;31762;45.420;10.072;2024-01-30T21:30:55;49.45;;;43.22;;
44572;SDS011;31762;45.420;10.072;2024-01-30T21:35:58;49.78;;;42.90;;
44572;SDS011;31762;45.420;10.072;2024-01-30T21:41:00;46.33;;;41.40;;
44572;SDS011;31762;45.420;10.072;2024-01-30T21:46:03;48.75;;;42.90;;
44572;SDS011;31762;45.420;10.072;2024-01-30T21:51:07;46.72;;;41.67;;
44572;SDS011;31762;45.420;10.072;2024-01-30T21:56:09;43.05;;;38.38;;
44572;SDS011;31762;45.420;10.072;2024-01-30T22:01:11;45.30;;;40.42;;
44572;SDS011;31762;45.420;10.072;2024-01-30T22:06:13;43.83;;;39.08;;
44572;SDS011;31762;45.420;10.072;2024-01-30T22:11:16;42.20;;;37.72;;
44572;SDS011;31762;45.420;10.072;2024-01-30T22:16:18;41.90;;;37.70;;
44572;SDS011;31762;45.420;10.072;2024-01-30T22:21:20;41.42;;;36.90;;
44572;SDS011;31762;45.420;10.072;2024-01-30T22:26:22;42.42;;;37.92;;
44572;SDS011;31762;45.420;10.072;2024-01-30T22:31:25;42.55;;;38.05;;
44572;SDS011;31762;45.420;10.072;2024-01-30T22:36:27;42.97;;;38.38;;
44572;SDS011;31762;45.420;10.072;2024-01-30T22:41:30;45.42;;;40.10;;
44572;SDS011;31762;45.420;10.072;2024-01-30T22:46:32;46.22;;;41.35;;
44572;SDS011;31762;45.420;10.072;2024-01-30T22:51:35;47.85;;;42.50;;
44572;SDS011;31762;45.420;10.072;2024-01-30T22:56:37;43.17;;;38.72;;
44572;SDS011;31762;45.420;10.072;2024-01-30T23:01:39;42.95;;;38.53;;
44572;SDS011;31762;45.420;10.072;2024-01-30T23:06:42;43.20;;;38.85;;
44572;SDS011;31762;45.420;10.072;2024-01-30T23:11:47;44.50;;;39.90;;
44572;SDS011;31762;45.420;10.072;2024-01-30T23:16:50;40.63;;;36.45;;
44572;SDS011;31762;45.420;10.072;2024-01-30T23:21:52;43.30;;;38.90;;
44572;SDS011;31762;45.420;10.072;2024-01-30T23:26:54;43.38;;;38.75;;
44572;SDS011;31762;45.420;10.072;2024-01-30T23:31:56;42.75;;;38.13;;
44572;SDS011;31762;45.420;10.072;2024-01-30T23:36:58;40.17;;;36.22;;
44572;SDS011;31762;45.420;10.072;2024-01-30T23:42:01;41.38;;;37.28;;
44572;SDS011;31762;45.420;10.072;2024-01-30T23:47:03;40.80;;;36.47;;
44572;SDS011;31762;45.420;10.072;2024-01-30T23:52:05;40.78;;;36.53;;
44572;SDS011;31762;45.420;10.072;2024-01-30T23:57:07;42.70;;;38.65;;
